Time;durP1;ratioP1;P1;durP2;ratioP2;P2;SDS_P1;SDS_P2;PMS_P1;PMS_P2;Temp;Humidity;BMP_temperature;BMP_pressure;BME280_temperature;BME280_humidity;BME280_pressure;Samples;Min_cycle;Max_cycle;Signal;HPM_P1;HPM_P2
2023/02/13 00:01:37;;;;;;;16.40;6.60;;;;;;;4.01;100.00;102946.66;5056113;28;20557;-74
2023/02/13 00:04:04;;;;;;;12.27;6.07;;;;;;;4.02;100.00;102951.00;5061109;28;20289;-75
2023/02/13 00:06:30;;;;;;;15.10;6.50;;;;;;;4.01;100.00;102947.56;5058804;28;20230;-75
2023/02/13 00:08:57;;;;;;;11.67;5.87;;;;;;;4.03;100.00;102948.50;5058294;28;20360;-76
2023/02/13 00:11:24;;;;;;;11.77;5.87;;;;;;;4.04;100.00;102954.53;5059842;28;20209;-74
2023/02/13 00:13:51;;;;;;;14.13;6.17;;;;;;;4.07;100.00;102944.31;5055768;28;20211;-76
2023/02/13 00:16:17;;;;;;;11.77;6.13;;;;;;;4.05;100.00;102940.81;5056377;28;20208;-76
2023/02/13 00:18:44;;;;;;;14.17;6.40;;;;;;;4.06;100.00;102939.97;5057777;28;20205;-74
2023/02/13 00:21:12;;;;;;;14.87;6.17;;;;;;;4.09;100.00;102945.25;5034000;28;20209;-73
2023/02/13 00:23:39;;;;;;;15.90;7.07;;;;;;;4.08;100.00;102933.16;5056523;28;20735;-73
2023/02/13 00:26:32;;;;;;;13.07;6.30;;;;;;;4.07;100.00;102940.03;5031970;28;20198;-73
2023/02/13 00:29:03;;;;;;;17.63;6.80;;;;;;;4.08;100.00;102941.81;5057789;28;20776;-76
2023/02/13 00:31:29;;;;;;;12.80;6.30;;;;;;;4.07;100.00;102942.63;5054942;28;20199;-75
2023/02/13 00:33:55;;;;;;;15.67;6.90;;;;;;;4.09;100.00;102940.09;5052813;28;20200;-76
2023/02/13 00:36:23;;;;;;;14.70;6.97;;;;;;;4.08;100.00;102933.16;5060639;28;20245;-76
2023/02/13 00:38:50;;;;;;;16.40;7.17;;;;;;;4.08;100.00;102933.16;5056743;23;20230;-72
2023/02/13 00:41:17;;;;;;;12.93;6.70;;;;;;;4.07;100.00;102936.56;5038782;28;20604;-72
2023/02/13 00:43:45;;;;;;;12.00;6.20;;;;;;;4.04;100.00;102931.28;5037529;28;20211;-72
2023/02/13 00:46:12;;;;;;;14.00;6.53;;;;;;;4.07;100.00;102934.88;5053890;28;20209;-72
2023/02/13 00:48:39;;;;;;;12.77;6.70;;;;;;;4.07;100.00;102934.88;5054510;28;20521;-72
2023/02/13 00:51:07;;;;;;;12.70;6.97;;;;;;;4.08;100.00;102935.72;5052946;28;20237;-72
2023/02/13 00:53:34;;;;;;;14.63;6.60;;;;;;;4.09;100.00;102934.94;5045244;28;20202;-72
2023/02/13 00:56:01;;;;;;;13.67;7.17;;;;;;;4.07;100.00;102927.13;5060486;28;20190;-72
2023/02/13 00:58:32;;;;;;;15.20;7.23;;;;;;;4.08;100.00;102925.41;5067207;28;20218;-72
2023/02/13 01:01:00;;;;;;;14.57;7.07;;;;;;;4.09;100.00;102922.88;5056902;28;20194;-72
2023/02/13 01:03:27;;;;;;;18.03;6.97;;;;;;;4.09;100.00;102922.88;5042295;28;20200;-72
2023/02/13 01:05:53;;;;;;;16.07;7.13;;;;;;;4.09;100.00;102925.47;5059023;28;20198;-72
2023/02/13 01:08:20;;;;;;;13.23;7.07;;;;;;;4.10;100.00;102926.38;5037701;28;20257;-72
2023/02/13 01:10:48;;;;;;;15.87;6.47;;;;;;;4.10;100.00;102919.50;5037618;28;20267;-72
2023/02/13 01:13:17;;;;;;;14.87;7.03;;;;;;;4.12;100.00;102924.72;5060637;28;20219;-72
2023/02/13 01:15:44;;;;;;;16.27;7.57;;;;;;;4.11;100.00;102922.94;5062648;28;20194;-72
2023/02/13 01:18:12;;;;;;;13.50;6.67;;;;;;;4.09;100.00;102925.47;5062280;28;20215;-72
2023/02/13 01:20:39;;;;;;;19.40;7.50;;;;;;;4.10;100.00;102924.66;5064357;28;20765;-72
2023/02/13 01:23:05;;;;;;;17.40;6.97;;;;;;;4.10;100.00;102918.63;5062354;28;20249;-72
2023/02/13 01:25:31;;;;;;;17.70;7.27;;;;;;;4.08;100.00;102915.97;5066507;28;20203;-72
2023/02/13 01:27:58;;;;;;;15.10;7.37;;;;;;;4.09;100.00;102909.97;5045695;28;20233;-72
2023/02/13 01:30:24;;;;;;;14.97;6.83;;;;;;;4.08;100.00;102908.25;5044035;28;20198;-72
2023/02/13 01:32:51;;;;;;;16.43;7.43;;;;;;;4.07;100.00;102911.63;5044674;28;20790;-72
2023/02/13 01:35:19;;;;;;;15.93;7.37;;;;;;;4.07;100.00;102900.44;5042293;28;20281;-72
2023/02/13 01:37:46;;;;;;;21.80;8.00;;;;;;;4.08;100.00;102895.34;5062033;28;20234;-72
2023/02/13 01:40:16;;;;;;;17.20;7.27;;;;;;;4.10;100.00;102904.00;5063045;28;20269;-72
2023/02/13 01:42:43;;;;;;;21.27;7.77;;;;;;;4.11;100.00;102895.41;5041526;28;20296;-72
2023/02/13 01:45:23;;;;;;;20.97;7.63;;;;;;;4.10;100.00;102892.81;5043057;28;20289;-72
2023/02/13 01:47:52;;;;;;;16.50;7.73;;;;;;;4.09;100.00;102898.78;5036656;28;20230;-72
2023/02/13 01:50:31;;;;;;;19.33;7.87;;;;;;;4.08;100.00;102900.50;5052637;28;20654;-72
2023/02/13 01:53:02;;;;;;;20.70;7.57;;;;;;;4.09;100.00;102907.41;5061473;28;20357;-72
2023/02/13 01:55:32;;;;;;;24.20;8.37;;;;;;;4.09;100.00;102903.94;5047415;28;20205;-72
2023/02/13 01:58:05;;;;;;;18.93;7.47;;;;;;;4.09;100.00;102912.56;5060610;28;20214;-72
2023/02/13 02:00:31;;;;;;;22.27;8.27;;;;;;;4.09;100.00;102901.38;5046440;28;20303;-72
2023/02/13 02:03:04;;;;;;;20.53;8.33;;;;;;;4.10;100.00;102910.88;5042460;28;20211;-71
2023/02/13 02:05:34;;;;;;;24.70;9.07;;;;;;;4.10;100.00;102909.16;5041422;28;20203;-71
2023/02/13 02:08:04;;;;;;;23.40;9.00;;;;;;;4.12;100.00;102906.66;5055656;28;20223;-72
2023/02/13 02:10:32;;;;;;;22.97;8.90;;;;;;;4.13;100.00;102903.22;5066350;28;21940;-72
2023/02/13 02:13:04;;;;;;;22.93;8.97;;;;;;;4.12;100.00;102899.78;5041716;28;20199;-72
2023/02/13 02:15:34;;;;;;;24.83;9.60;;;;;;;4.10;100.00;102893.69;5057909;28;20761;-72
2023/02/13 02:18:01;;;;;;;22.30;9.57;;;;;;;4.08;100.00;102905.66;5042522;28;20698;-72
2023/02/13 02:20:55;;;;;;;24.27;9.27;;;;;;;4.08;100.00;102897.00;5058269;28;20282;-72
2023/02/13 02:23:53;;;;;;;24.53;9.47;;;;;;;4.13;100.00;102895.47;5043742;28;20611;-71
2023/02/13 02:26:44;;;;;;;23.83;9.17;;;;;;;4.10;100.00;102896.25;5045834;28;20655;-72
2023/02/13 02:29:47;;;;;;;26.40;9.60;;;;;;;4.10;100.00;102897.97;5060589;28;20225;-72
2023/02/13 02:32:31;;;;;;;27.67;9.93;;;;;;;4.09;100.00;102896.19;5057537;28;20205;-71
2023/02/13 02:35:15;;;;;;;26.07;9.10;;;;;;;4.10;100.00;102892.81;5063542;28;20198;-72
2023/02/13 02:37:58;;;;;;;20.57;8.90;;;;;;;4.10;100.00;102896.25;5042925;28;20230;-72
2023/02/13 02:40:34;;;;;;;24.00;10.20;;;;;;;4.08;100.00;102889.25;5061342;28;20221;-72
2023/02/13 02:43:15;;;;;;;24.93;10.33;;;;;;;4.09;100.00;102889.31;5057675;28;20295;-72
2023/02/13 02:45:49;;;;;;;26.20;10.20;;;;;;;4.10;100.00;102890.22;5057661;28;20309;-72
2023/02/13 02:51:24;;;;;;;24.47;9.00;;;;;;;4.12;100.00;102884.28;5003010;28;20201;-72
2023/02/13 02:55:05;;;;;;;24.57;9.93;;;;;;;4.12;100.00;102888.56;5056552;28;20228;-72
2023/02/13 02:56:54;;;;;;;26.27;10.40;;;;;;;4.12;100.00;102886.84;5041139;28;20194;-72
2023/02/13 03:07:44;;;;;;;31.00;12.17;;;;;;;4.25;100.00;102889.88;5056969;28;20725;-72
2023/02/13 03:13:21;;;;;;;30.37;12.43;;;;;;;4.36;100.00;102898.88;5062066;28;20796;-72
2023/02/13 03:24:27;;;;;;;33.37;11.73;;;;;;;4.46;100.00;102898.41;5063656;28;20224;-72
2023/02/13 03:27:04;;;;;;;32.53;11.97;;;;;;;4.50;100.00;102895.13;5054569;28;20198;-72
2023/02/13 03:32:36;;;;;;;32.40;11.47;;;;;;;4.52;100.00;102896.03;5057143;28;20195;-72
2023/02/13 03:38:09;;;;;;;31.30;11.60;;;;;;;4.54;100.00;102896.09;5056200;28;20237;-72
2023/02/13 03:41:17;;;;;;;29.60;11.63;;;;;;;4.55;100.00;102896.13;5042259;28;20198;-72
2023/02/13 03:43:31;;;;;;;29.20;12.63;;;;;;;4.58;100.00;102894.50;5056863;28;20757;-72
2023/02/13 03:46:01;;;;;;;31.27;11.57;;;;;;;4.58;100.00;102897.97;5037991;28;20206;-72
2023/02/13 03:51:21;;;;;;;30.57;11.93;;;;;;;4.61;100.00;102903.25;5053992;28;20207;-72
2023/02/13 03:53:54;;;;;;;23.43;10.63;;;;;;;4.63;100.00;102911.91;5057204;28;20293;-72
2023/02/13 03:59:18;;;;;;;29.93;11.60;;;;;;;4.67;100.00;102907.75;5062501;28;20643;-72
2023/02/13 04:01:50;;;;;;;23.03;9.30;;;;;;;4.64;100.00;102908.50;5053469;28;20305;-73
2023/02/13 04:04:24;;;;;;;21.93;8.67;;;;;;;4.65;100.00;102922.31;5057980;28;20203;-73
2023/02/13 04:06:55;;;;;;;19.83;8.67;;;;;;;4.64;100.00;102907.63;5059966;28;20605;-73
2023/02/13 04:09:23;;;;;;;20.27;8.50;;;;;;;4.62;100.00;102907.56;5060181;28;20242;-73
2023/02/13 04:11:56;;;;;;;19.30;8.50;;;;;;;4.61;100.00;102913.56;5052063;28;20199;-73
2023/02/13 04:14:28;;;;;;;17.33;7.70;;;;;;;4.60;100.00;102905.78;5055299;28;20195;-73
2023/02/13 04:17:02;;;;;;;17.13;6.60;;;;;;;4.60;100.00;102910.94;5038486;28;20214;-71
2023/02/13 04:19:29;;;;;;;13.47;6.47;;;;;;;4.60;100.00;102910.94;5055756;28;20269;-73
2023/02/13 04:21:57;;;;;;;14.43;6.60;;;;;;;4.58;100.00;102910.88;5058644;28;20723;-73
2023/02/13 04:24:25;;;;;;;13.93;5.77;;;;;;;4.56;100.00;102917.69;5061015;28;20206;-73
2023/02/13 04:26:53;;;;;;;12.17;5.53;;;;;;;4.54;100.00;102907.31;5036084;28;20198;-73
2023/02/13 04:29:20;;;;;;;12.37;6.20;;;;;;;4.52;100.00;102914.13;5060801;28;20206;-73
2023/02/13 04:31:47;;;;;;;14.47;6.33;;;;;;;4.50;100.00;102914.88;5057932;28;20281;-73
2023/02/13 04:34:15;;;;;;;11.57;5.53;;;;;;;4.48;100.00;102906.22;5058138;28;20293;-73
2023/02/13 04:36:42;;;;;;;14.30;5.70;;;;;;;4.45;100.00;102909.56;5060937;28;20575;-73
2023/02/13 04:39:08;;;;;;;15.90;5.70;;;;;;;4.47;100.00;102917.38;5051791;28;20230;-73
2023/02/13 04:41:36;;;;;;;15.17;5.93;;;;;;;4.48;100.00;102916.53;5066731;28;20448;-73
2023/02/13 04:44:02;;;;;;;12.03;5.83;;;;;;;4.47;100.00;102912.22;5057844;28;20206;-73
2023/02/13 04:46:29;;;;;;;9.93;5.70;;;;;;;4.45;100.00;102916.41;5041195;28;20186;-73
2023/02/13 04:48:55;;;;;;;15.30;5.80;;;;;;;4.41;100.00;102912.84;5058248;28;20223;-73
2023/02/13 04:51:22;;;;;;;10.60;4.90;;;;;;;4.39;100.00;102913.63;5036185;28;20187;-73
2023/02/13 04:53:48;;;;;;;11.27;4.30;;;;;;;4.34;100.00;102910.88;5059576;28;20765;-73
2023/02/13 04:56:14;;;;;;;9.03;4.20;;;;;;;4.30;100.00;102914.19;5060835;28;20187;-73
2023/02/13 04:58:42;;;;;;;9.70;4.03;;;;;;;4.29;100.00;102912.41;5059650;28;20210;-73
2023/02/13 05:01:12;;;;;;;7.87;3.67;;;;;;;4.26;100.00;102909.75;5057390;28;20596;-73
2023/02/13 05:03:39;;;;;;;8.90;3.73;;;;;;;4.24;100.00;102912.25;5054967;28;20199;-73
2023/02/13 05:06:05;;;;;;;8.03;4.27;;;;;;;4.24;100.00;102916.53;5055817;28;20203;-73
2023/02/13 05:08:32;;;;;;;11.97;3.83;;;;;;;4.20;100.00;102915.53;5057091;28;20572;-73
2023/02/13 05:10:58;;;;;;;9.73;4.60;;;;;;;4.15;100.00;102910.22;5056614;28;20202;-73
2023/02/13 05:13:25;;;;;;;9.17;3.40;;;;;;;4.14;100.00;102911.03;5059443;28;20229;-73
2023/02/13 05:15:52;;;;;;;7.70;4.03;;;;;;;4.13;100.00;102908.38;5041978;28;20647;-73
2023/02/13 05:18:19;;;;;;;8.63;4.30;;;;;;;4.11;100.00;102910.03;5055808;28;20212;-73
2023/02/13 05:23:21;;;;;;;6.40;3.97;;;;;;;4.09;100.00;102909.97;5053546;28;20203;-73
2023/02/13 05:23:31;;;;;;;12.03;4.33;;;;;;;4.07;100.00;102914.22;5056177;28;20207;-73
2023/02/13 05:25:57;;;;;;;9.80;4.53;;;;;;;4.07;100.00;102908.19;5047081;28;20199;-73
2023/02/13 05:31:09;;;;;;;10.07;3.67;;;;;;;4.02;100.00;102917.44;5052009;28;20209;-73
2023/02/13 05:33:36;;;;;;;7.60;3.97;;;;;;;3.98;100.00;102916.47;5042520;28;20201;-73
2023/02/13 05:36:02;;;;;;;9.67;4.13;;;;;;;3.96;100.00;102916.41;5062701;28;20703;-73
2023/02/13 05:38:29;;;;;;;7.70;4.43;;;;;;;3.93;100.00;102925.72;5032808;28;21505;-72
2023/02/13 05:40:58;;;;;;;8.97;4.17;;;;;;;3.90;100.00;102920.44;5050843;28;20199;-72
2023/02/13 05:43:24;;;;;;;7.67;3.83;;;;;;;3.89;100.00;102924.72;5051550;28;20692;-72
2023/02/13 05:45:51;;;;;;;7.33;3.63;;;;;;;3.88;100.00;102928.13;5056905;28;20191;-72
2023/02/13 05:48:18;;;;;;;9.07;4.27;;;;;;;3.88;100.00;102927.25;5050575;28;20254;-72
2023/02/13 05:50:46;;;;;;;9.37;3.47;;;;;;;3.88;100.00;102935.00;5045861;28;20505;-72
2023/02/13 05:53:13;;;;;;;9.30;4.00;;;;;;;3.86;100.00;102937.50;5026807;28;20207;-72
2023/02/13 05:55:39;;;;;;;7.40;3.83;;;;;;;3.84;100.00;102934.00;5049939;28;20289;-72
2023/02/13 05:58:07;;;;;;;9.80;3.80;;;;;;;3.82;100.00;102939.91;5053792;28;20262;-72
2023/02/13 06:00:33;;;;;;;9.10;3.83;;;;;;;3.78;100.00;102939.81;5051533;28;20197;-71
2023/02/13 06:03:00;;;;;;;8.43;3.80;;;;;;;3.78;100.00;102941.47;5044363;28;20641;-72
2023/02/13 06:05:27;;;;;;;7.23;3.77;;;;;;;3.77;100.00;102939.75;5052429;28;20532;-72
2023/02/13 06:07:54;;;;;;;7.00;3.60;;;;;;;3.77;100.00;102942.31;5034766;28;20226;-71
2023/02/13 06:10:20;;;;;;;7.70;3.73;;;;;;;3.76;100.00;102950.88;5052235;28;20194;-72
2023/02/13 06:12:47;;;;;;;9.67;4.10;;;;;;;3.76;100.00;102948.28;5032094;28;20213;-71
2023/02/13 06:15:13;;;;;;;10.53;4.23;;;;;;;3.73;100.00;102945.59;5048854;28;20230;-71
2023/02/13 06:17:39;;;;;;;13.47;4.93;;;;;;;3.71;100.00;102939.50;5048737;28;20658;-72
2023/02/13 06:20:07;;;;;;;10.33;4.13;;;;;;;3.70;100.00;102948.06;5049765;28;20200;-72
2023/02/13 06:22:35;;;;;;;9.63;4.57;;;;;;;3.69;100.00;102948.88;5053557;28;20251;-72
2023/02/13 06:25:01;;;;;;;9.57;4.60;;;;;;;3.69;100.00;102944.59;5053291;28;20199;-72
2023/02/13 06:27:28;;;;;;;6.00;3.67;;;;;;;3.69;100.00;102954.91;5039674;28;20732;-72
2023/02/13 06:29:54;;;;;;;12.73;4.17;;;;;;;3.69;100.00;102949.75;5056125;28;20272;-72
2023/02/13 06:32:20;;;;;;;9.43;4.67;;;;;;;3.71;100.00;102953.28;5039789;28;20191;-72
2023/02/13 06:34:47;;;;;;;9.43;5.20;;;;;;;3.72;100.00;102959.31;5061941;28;20203;-72
2023/02/13 06:37:15;;;;;;;8.80;4.70;;;;;;;3.73;100.00;102963.66;5057442;28;20219;-72
2023/02/13 06:39:44;;;;;;;9.13;4.80;;;;;;;3.73;100.00;102963.66;5072813;23;20257;-76
2023/02/13 06:42:10;;;;;;;8.10;4.23;;;;;;;3.76;100.00;102966.34;5056250;28;20293;-75
2023/02/13 06:44:36;;;;;;;8.40;4.53;;;;;;;3.76;100.00;102976.69;5067371;28;20767;-74
2023/02/13 06:47:03;;;;;;;8.97;3.83;;;;;;;3.77;100.00;102978.44;5065142;28;20218;-75
2023/02/13 06:49:29;;;;;;;9.23;4.90;;;;;;;3.81;100.00;102976.88;5056315;28;20666;-73
2023/02/13 06:51:56;;;;;;;7.67;4.57;;;;;;;3.82;100.00;102981.19;5052417;28;20213;-73
2023/02/13 06:54:22;;;;;;;8.37;4.23;;;;;;;3.84;100.00;102983.03;5055656;28;20207;-74
2023/02/13 06:56:50;;;;;;;7.93;4.37;;;;;;;3.83;100.00;102983.84;5056796;28;20207;-75
2023/02/13 06:59:16;;;;;;;8.93;4.77;;;;;;;3.81;100.00;102988.06;5049346;28;20215;-74
2023/02/13 07:01:42;;;;;;;10.73;4.57;;;;;;;3.79;100.00;102989.72;5048986;28;20217;-74
2023/02/13 07:04:09;;;;;;;9.97;4.47;;;;;;;3.82;100.00;102987.25;5050586;28;20199;-76
2023/02/13 07:06:35;;;;;;;9.83;4.70;;;;;;;3.83;100.00;102991.56;5044340;28;20735;-74
2023/02/13 07:09:02;;;;;;;8.33;4.07;;;;;;;3.86;100.00;102990.84;5049804;28;20231;-75
2023/02/13 07:11:29;;;;;;;7.90;4.63;;;;;;;3.85;100.00;102986.47;5061052;28;20191;-74
2023/02/13 07:13:57;;;;;;;12.37;5.30;;;;;;;3.86;100.00;102991.72;5060643;28;20213;-75
2023/02/13 07:16:23;;;;;;;9.60;4.83;;;;;;;3.86;100.00;102986.53;5064004;28;20203;-74
2023/02/13 07:18:49;;;;;;;11.07;5.13;;;;;;;3.87;100.00;102988.31;5059109;28;20229;-74
2023/02/13 07:21:16;;;;;;;11.00;4.77;;;;;;;3.91;100.00;102991.91;5038686;28;20212;-75
2023/02/13 07:23:42;;;;;;;7.20;4.47;;;;;;;3.94;100.00;102992.00;5061106;28;20202;-76
2023/02/13 07:26:09;;;;;;;10.83;5.13;;;;;;;3.93;100.00;102988.53;5052968;28;20281;-76
2023/02/13 07:28:36;;;;;;;10.33;5.40;;;;;;;3.95;100.00;102993.78;5059649;28;20633;-75
2023/02/13 07:31:05;;;;;;;9.90;4.93;;;;;;;3.96;100.00;102990.38;5030219;28;20204;-76
2023/02/13 07:33:32;;;;;;;13.50;5.33;;;;;;;3.97;100.00;102990.44;5054696;28;20597;-75
2023/02/13 07:35:58;;;;;;;11.93;5.37;;;;;;;4.00;100.00;102987.09;5059652;28;20260;-75
2023/02/13 07:38:25;;;;;;;9.23;5.07;;;;;;;4.02;100.00;102992.31;5057298;28;20226;-76
2023/02/13 07:40:51;;;;;;;10.40;4.93;;;;;;;4.05;100.00;102989.84;5060331;28;20223;-74
2023/02/13 07:43:17;;;;;;;10.77;5.77;;;;;;;4.07;100.00;102993.38;5054857;28;20231;-74
2023/02/13 07:45:45;;;;;;;10.60;5.63;;;;;;;4.10;100.00;102985.75;5058021;28;20214;-76
2023/02/13 07:48:13;;;;;;;13.30;5.33;;;;;;;4.13;100.00;102991.00;5062015;28;20227;-76
2023/02/13 07:50:39;;;;;;;11.17;5.17;;;;;;;4.17;100.00;102990.31;5061141;28;20219;-74
2023/02/13 07:53:06;;;;;;;9.37;4.73;;;;;;;4.20;100.00;102994.72;5053972;28;20195;-76
2023/02/13 07:55:32;;;;;;;11.47;5.33;;;;;;;4.23;100.00;102997.41;5058356;28;20209;-76
2023/02/13 07:58:00;;;;;;;12.37;5.80;;;;;;;4.27;100.00;102989.81;5056606;28;20276;-76
2023/02/13 08:00:26;;;;;;;11.20;5.47;;;;;;;4.33;100.00;102987.50;5051607;28;20681;-76
2023/02/13 08:02:52;;;;;;;10.87;5.23;;;;;;;4.38;100.00;102990.25;5053871;28;20199;-74
2023/02/13 08:05:20;;;;;;;11.27;5.60;;;;;;;4.43;100.00;102995.56;5054745;28;20191;-76
2023/02/13 08:07:46;;;;;;;9.77;5.17;;;;;;;4.47;100.00;102988.00;5056742;28;20218;-75
2023/02/13 08:12:58;;;;;;;10.10;5.97;;;;;;;4.50;100.00;102994.97;5058226;28;20195;-74
2023/02/13 08:15:24;;;;;;;13.70;5.53;;;;;;;4.54;100.00;102992.56;5037597;28;20203;-76
2023/02/13 08:17:51;;;;;;;9.33;5.57;;;;;;;4.59;100.00;103000.50;5035713;28;20254;-76
2023/02/13 08:20:17;;;;;;;11.97;6.53;;;;;;;4.61;100.00;102997.94;5057031;28;20199;-76
2023/02/13 08:22:45;;;;;;;10.57;5.50;;;;;;;4.65;100.00;103000.72;5053069;28;20694;-76
2023/02/13 08:25:12;;;;;;;12.77;5.67;;;;;;;4.67;100.00;102995.59;5053682;28;20552;-76
2023/02/13 08:27:39;;;;;;;10.77;5.63;;;;;;;4.72;100.00;103005.28;5039751;28;20567;-73
2023/02/13 08:30:09;;;;;;;15.40;7.73;;;;;;;4.67;100.00;103003.34;5032818;28;20226;-75
2023/02/13 08:32:36;;;;;;;14.67;8.27;;;;;;;4.71;100.00;103007.81;5051734;28;20867;-74
2023/02/13 08:35:02;;;;;;;19.87;11.67;;;;;;;4.72;100.00;103007.00;5034352;28;20198;-76
2023/02/13 08:37:28;;;;;;;19.17;9.27;;;;;;;4.74;100.00;103016.53;5050022;28;20520;-76
2023/02/13 08:39:56;;;;;;;13.33;7.73;;;;;;;4.72;100.00;103012.16;5054222;28;20199;-75
2023/02/13 08:42:22;;;;;;;14.23;6.83;;;;;;;4.76;100.00;103008.84;5055633;28;20735;-76
2023/02/13 08:44:49;;;;;;;14.90;8.07;;;;;;;4.84;100.00;103009.16;5054776;28;20195;-75
2023/02/13 08:47:15;;;;;;;14.23;7.30;;;;;;;4.85;100.00;103014.34;5038767;28;20427;-76
2023/02/13 08:49:41;;;;;;;12.53;6.47;;;;;;;4.89;100.00;103016.22;5056973;28;20223;-74
2023/02/13 08:52:08;;;;;;;12.47;5.83;;;;;;;4.84;100.00;103011.72;5056345;28;20261;-76
2023/02/13 08:54:35;;;;;;;14.43;6.80;;;;;;;4.85;100.00;103018.63;5059793;28;20198;-75
2023/02/13 08:57:03;;;;;;;12.57;6.10;;;;;;;4.86;100.00;103015.25;5055355;28;20217;-75
2023/02/13 08:59:29;;;;;;;14.33;6.80;;;;;;;4.89;100.00;103012.75;5051728;28;20570;-76
2023/02/13 09:01:56;;;;;;;12.20;5.80;;;;;;;4.93;100.00;103018.09;5058261;28;20682;-76
2023/02/13 09:04:23;;;;;;;15.47;7.33;;;;;;;4.99;100.00;103014.81;5060539;28;20198;-74
2023/02/13 09:06:49;;;;;;;17.30;7.37;;;;;;;5.07;100.00;103018.56;5059488;28;20536;-76
2023/02/13 09:09:16;;;;;;;15.20;6.00;;;;;;;5.19;100.00;103022.41;5054165;28;20223;-76
2023/02/13 09:11:42;;;;;;;15.07;6.63;;;;;;;5.25;100.00;103013.16;5054760;28;20226;-75
2023/02/13 09:14:10;;;;;;;15.80;6.90;;;;;;;5.31;100.00;103021.13;5036451;28;20199;-75
2023/02/13 09:16:36;;;;;;;16.17;7.27;;;;;;;5.32;100.00;103011.66;5051635;28;20699;-75
2023/02/13 09:19:03;;;;;;;13.40;6.40;;;;;;;5.33;100.00;103016.00;5049453;28;20602;-76
2023/02/13 09:21:30;;;;;;;17.47;7.70;;;;;;;5.38;100.00;103022.22;5053249;28;20198;-77
2023/02/13 09:23:56;;;;;;;14.77;6.47;;;;;;;5.42;100.00;103018.03;5052955;28;20212;-75
2023/02/13 09:26:23;;;;;;;14.97;7.67;;;;;;;5.37;100.00;103024.75;5051979;28;20203;-75
2023/02/13 09:28:49;;;;;;;15.60;7.70;;;;;;;5.36;100.00;103020.41;5053361;28;20219;-74
2023/02/13 09:31:19;;;;;;;16.20;8.07;;;;;;;5.34;100.00;103014.28;5055018;28;20760;-74
2023/02/13 09:33:48;;;;;;;17.10;7.20;;;;;;;5.38;100.00;103017.06;5054946;28;20207;-76
2023/02/13 09:36:18;;;;;;;22.53;12.03;;;;;;;5.39;100.00;103021.38;5049118;28;20290;-75
2023/02/13 09:38:45;;;;;;;15.53;7.83;;;;;;;5.34;100.00;103020.34;5053580;28;20682;-75
2023/02/13 09:41:14;;;;;;;17.70;7.80;;;;;;;5.41;100.00;103018.84;5061646;28;20671;-76
2023/02/13 09:43:44;;;;;;;14.90;8.23;;;;;;;5.44;100.00;103022.41;5057538;28;20625;-76
2023/02/13 09:46:15;;;;;;;20.83;7.87;;;;;;;5.41;100.00;103018.84;5036189;28;20209;-74
2023/02/13 09:48:46;;;;;;;25.50;11.23;;;;;;;5.39;100.00;103018.78;5056655;28;20594;-75
2023/02/13 09:51:16;;;;;;;47.57;25.37;;;;;;;5.40;100.00;103030.00;5052258;28;20224;-76
2023/02/13 09:53:48;;;;;;;56.60;30.00;;;;;;;5.41;100.00;103026.59;5057277;28;20206;-74
2023/02/13 09:56:18;;;;;;;64.10;35.00;;;;;;;5.42;100.00;103033.56;5059115;28;20210;-73
2023/02/13 09:58:48;;;;;;;21.93;12.37;;;;;;;5.41;100.00;103027.47;5058891;28;20221;-75
2023/02/13 10:01:23;;;;;;;14.50;8.97;;;;;;;5.40;100.00;103030.91;5064308;28;20200;-76
2023/02/13 10:04:03;;;;;;;11.87;7.20;;;;;;;5.36;100.00;103030.75;5053063;28;20835;-76
2023/02/13 10:06:32;;;;;;;14.27;6.87;;;;;;;5.38;100.00;103027.41;5057285;28;20196;-76
2023/02/13 10:09:10;;;;;;;15.03;7.13;;;;;;;5.41;100.00;103029.19;5051475;28;20212;-75
2023/02/13 10:12:02;;;;;;;21.57;10.83;;;;;;;5.36;100.00;103031.63;5056019;28;20191;-76
2023/02/13 10:14:35;;;;;;;14.20;7.57;;;;;;;5.43;100.00;103036.16;5053684;28;20290;-74
2023/02/13 10:17:06;;;;;;;13.23;6.37;;;;;;;5.45;100.00;103031.94;5057830;28;20511;-76
2023/02/13 10:19:40;;;;;;;15.27;5.83;;;;;;;5.48;100.00;103025.97;5057115;28;20225;-77
2023/02/13 10:22:13;;;;;;;11.00;5.13;;;;;;;5.49;100.00;103031.22;5053270;28;20210;-76
2023/02/13 10:24:44;;;;;;;16.63;5.80;;;;;;;5.47;100.00;103022.53;5055039;28;20655;-77
2023/02/13 10:27:20;;;;;;;11.20;5.63;;;;;;;5.54;100.00;103026.19;5051017;28;20247;-77
2023/02/13 10:30:05;;;;;;;11.70;5.30;;;;;;;5.63;100.00;103020.44;5055828;28;20222;-77
2023/02/13 10:33:21;;;;;;;13.80;7.10;;;;;;;5.64;100.00;103019.59;5053871;28;20797;-76
2023/02/13 10:35:54;;;;;;;16.17;8.30;;;;;;;5.72;100.00;103002.63;5051634;28;20233;-76
2023/02/13 10:38:23;;;;;;;17.57;7.07;;;;;;;5.81;100.00;103004.63;5051734;28;20219;-76
2023/02/13 10:41:04;;;;;;;13.63;6.47;;;;;;;5.86;100.00;103000.47;5043506;28;20201;-76
2023/02/13 10:43:39;;;;;;;15.70;8.07;;;;;;;5.96;100.00;102999.97;5057529;28;20262;-75
2023/02/13 10:46:15;;;;;;;17.47;7.43;;;;;;;6.05;100.00;103005.41;5046796;28;20814;-76
2023/02/13 10:49:04;;;;;;;13.33;6.63;;;;;;;6.17;100.00;102994.53;5053139;28;20229;-76
2023/02/13 10:51:39;;;;;;;18.50;7.07;;;;;;;6.25;100.00;102994.78;5058483;28;20215;-77
2023/02/13 10:54:31;;;;;;;13.00;6.30;;;;;;;6.33;100.00;102993.28;5058714;28;20584;-77
2023/02/13 10:57:08;;;;;;;11.13;5.20;;;;;;;6.38;100.00;102990.81;5051247;28;20201;-76
2023/02/13 10:59:58;;;;;;;11.67;5.77;;;;;;;6.41;100.00;102985.72;5057922;28;20243;-75
2023/02/13 11:02:26;;;;;;;15.50;6.93;;;;;;;6.42;100.00;102979.69;5056406;28;20205;-76
2023/02/13 11:04:57;;;;;;;16.00;6.97;;;;;;;6.44;100.00;102972.88;5052911;28;20209;-75
2023/02/13 11:07:26;;;;;;;15.07;6.93;;;;;;;6.46;100.00;102972.91;5047974;28;20581;-76
2023/02/13 11:09:56;;;;;;;15.93;6.80;;;;;;;6.49;100.00;102972.97;5048538;28;20290;-76
2023/02/13 11:12:28;;;;;;;16.03;8.03;;;;;;;6.53;100.00;102973.13;5053335;28;20210;-76
2023/02/13 11:14:56;;;;;;;11.40;5.97;;;;;;;6.52;100.00;102965.28;5052519;28;20212;-76
2023/02/13 11:17:23;;;;;;;10.20;5.13;;;;;;;6.55;100.00;102974.03;5055121;28;20206;-75
2023/02/13 11:19:52;;;;;;;10.10;5.57;;;;;;;6.57;100.00;102963.72;5053793;28;20206;-77
2023/02/13 11:22:31;;;;;;;7.93;4.73;;;;;;;6.58;100.00;102962.91;5052896;28;20237;-76
2023/02/13 11:25:00;;;;;;;9.83;5.37;;;;;;;6.62;100.00;102954.34;5052058;28;20510;-75
2023/02/13 11:27:31;;;;;;;13.53;6.50;;;;;;;6.65;100.00;102957.03;5048717;28;20862;-75
2023/02/13 11:30:00;;;;;;;6.20;3.73;;;;;;;6.65;100.00;102964.81;5059799;28;20226;-76
2023/02/13 11:32:28;;;;;;;6.47;3.40;;;;;;;6.65;100.00;102959.63;5049874;28;20214;-75
2023/02/13 11:34:55;;;;;;;4.10;2.70;;;;;;;6.69;100.00;102968.38;5052943;28;20674;-75
2023/02/13 11:37:25;;;;;;;4.80;3.30;;;;;;;6.79;100.00;102960.88;5056105;28;20904;-77
2023/02/13 11:39:55;;;;;;;4.20;2.60;;;;;;;6.87;100.00;102958.47;5055470;28;20227;-76
2023/02/13 11:42:27;;;;;;;4.00;2.50;;;;;;;6.89;100.00;102958.53;5052759;28;20203;-76
2023/02/13 11:44:58;;;;;;;3.53;1.83;;;;;;;6.89;100.00;102963.69;5055691;28;20204;-76
2023/02/13 11:47:33;;;;;;;3.70;2.07;;;;;;;6.90;100.00;102970.66;5054281;28;20201;-76
2023/02/13 11:50:00;;;;;;;3.73;2.20;;;;;;;6.99;100.00;102961.38;5056491;28;20210;-75
2023/02/13 11:52:32;;;;;;;2.67;1.90;;;;;;;7.02;100.00;102963.19;5056928;28;20225;-75
2023/02/13 11:55:02;;;;;;;2.87;2.10;;;;;;;7.01;100.00;102959.72;5054823;28;20213;-76
2023/02/13 11:57:30;;;;;;;4.23;2.87;;;;;;;7.12;100.00;102969.47;5055731;28;20444;-76
2023/02/13 11:59:58;;;;;;;2.40;1.63;;;;;;;7.08;100.00;102959.88;5056450;28;20209;-75
2023/02/13 12:02:26;;;;;;;3.53;1.70;;;;;;;7.13;100.00;102953.97;5052712;28;20196;-75
2023/02/13 12:04:54;;;;;;;2.80;2.17;;;;;;;7.20;100.00;102961.06;5055216;28;20210;-74
2023/02/13 12:07:24;;;;;;;2.60;1.77;;;;;;;7.26;100.00;102952.53;5052822;28;20261;-76
2023/02/13 12:09:54;;;;;;;1.73;1.53;;;;;;;7.27;100.00;102951.72;5054329;28;20209;-74
2023/02/13 12:12:29;;;;;;;2.37;1.70;;;;;;;7.19;100.00;102958.41;5035591;28;20213;-75